<?xml version="1.0" encoding="UTF-8"?>
<gpx version="1.0" creator="Trackator" xmlns:xsi="http://www.w3.org/2001/XMLSchema-instance" xmlns="http://www.topografix.com/GPX/1/0" xmlns:topografix="http://www.topografix.com/GPX/Private/TopoGrafix/0/1" xsi:schemaLocation="http://www.topografix.com/GPX/1/0 http://www.topografix.com/GPX/1/0/gpx.xsd http://www.topografix.com/GPX/Private/TopoGrafix/0/1 http://www.topografix.com/GPX/Private/TopoGrafix/0/1/topografix.xsd">
<metadata>
<link href="http://www.trackator.com">
<text>Trackator</text>
</link>
</metadata>
<time>2015-08-22T10:50:15Z</time>
<trk>
<name>Track: </name>
<desc>Cycling</desc>
<trkseg>
<trkpt lat="53.3481145" lon="18.4457815">
<ele>127</ele>
<time>2015-08-22T10:50:15Z</time>
</trkpt>
<trkpt lat="53.3481223" lon="18.4459811">
<ele>149</ele>
<time>2015-08-22T10:50:19Z</time>
</trkpt>
<trkpt lat="53.3481305" lon="18.4458176">
<ele>157</ele>
<time>2015-08-22T10:50:21Z</time>
</trkpt>
<trkpt lat="53.3481305" lon="18.4458176">
<ele>157</ele>
<time>2015-08-22T10:50:23Z</time>
</trkpt>
<trkpt lat="53.3481305" lon="18.4458176">
<ele>157</ele>
<time>2015-08-22T10:50:25Z</time>
</trkpt>
<trkpt lat="53.3481305" lon="18.4458176">
<ele>157</ele>
<time>2015-08-22T10:50:27Z</time>
</trkpt>
<trkpt lat="53.3481305" lon="18.4458176">
<ele>157</ele>
<time>2015-08-22T10:50:29Z</time>
</trkpt>
<trkpt lat="53.3481305" lon="18.4458176">
<ele>157</ele>
<time>2015-08-22T10:50:31Z</time>
</trkpt>
<trkpt lat="53.3481305" lon="18.4458176">
<ele>157</ele>
<time>2015-08-22T10:50:33Z</time>
</trkpt>
<trkpt lat="53.3481305" lon="18.4458176">
<ele>157</ele>
<time>2015-08-22T10:50:35Z</time>
</trkpt>
<trkpt lat="53.3481305" lon="18.4458176">
<ele>157</ele>
<time>2015-08-22T10:50:37Z</time>
</trkpt>
<trkpt lat="53.3481305" lon="18.4458176">
<ele>157</ele>
<time>2015-08-22T10:50:39Z</time>
</trkpt>
<trkpt lat="53.3481305" lon="18.4458176">
<ele>157</ele>
<time>2015-08-22T10:50:41Z</time>
</trkpt>
<trkpt lat="53.3481305" lon="18.4458176">
<ele>157</ele>
<time>2015-08-22T10:50:43Z</time>
</trkpt>
<trkpt lat="53.3481305" lon="18.4458176">
<ele>157</ele>
<time>2015-08-22T10:50:45Z</time>
</trkpt>
<trkpt lat="53.3481305" lon="18.4458176">
<ele>157</ele>
<time>2015-08-22T10:50:47Z</time>
</trkpt>
<trkpt lat="53.3481305" lon="18.4458176">
<ele>157</ele>
<time>2015-08-22T10:50:49Z</time>
</trkpt>
<trkpt lat="53.3481305" lon="18.4458176">
<ele>157</ele>
<time>2015-08-22T10:50:51Z</time>
</trkpt>
<trkpt lat="53.3481305" lon="18.4458176">
<ele>157</ele>
<time>2015-08-22T10:50:53Z</time>
</trkpt>
<trkpt lat="53.3481305" lon="18.4458176">
<ele>157</ele>
<time>2015-08-22T10:50:55Z</time>
</trkpt>
<trkpt lat="53.3481305" lon="18.4458176">
<ele>157</ele>
<time>2015-08-22T10:50:57Z</time>
</trkpt>
<trkpt lat="53.3481305" lon="18.4458176">
<ele>157</ele>
<time>2015-08-22T10:50:59Z</time>
</trkpt>
<trkpt lat="53.3481305" lon="18.4458176">
<ele>157</ele>
<time>2015-08-22T10:51:01Z</time>
</trkpt>
<trkpt lat="53.3481305" lon="18.4458176">
<ele>157</ele>
<time>2015-08-22T10:51:03Z</time>
</trkpt>
<trkpt lat="53.3481305" lon="18.4458176">
<ele>157</ele>
<time>2015-08-22T10:51:05Z</time>
</trkpt>
<trkpt lat="53.3481305" lon="18.4458176">
<ele>157</ele>
<time>2015-08-22T10:51:07Z</time>
</trkpt>
<trkpt lat="53.3481305" lon="18.4458176">
<ele>157</ele>
<time>2015-08-22T10:51:09Z</time>
</trkpt>
<trkpt lat="53.3481305" lon="18.4458176">
<ele>157</ele>
<time>2015-08-22T10:51:11Z</time>
</trkpt>
<trkpt lat="53.3481305" lon="18.4458176">
<ele>157</ele>
<time>2015-08-22T10:51:13Z</time>
</trkpt>
<trkpt lat="53.3481305" lon="18.4458176">
<ele>157</ele>
<time>2015-08-22T10:51:15Z</time>
</trkpt>
<trkpt lat="53.3481305" lon="18.4458176">
<ele>157</ele>
<time>2015-08-22T10:51:17Z</time>
</trkpt>
<trkpt lat="53.3481305" lon="18.4458176">
<ele>157</ele>
<time>2015-08-22T10:51:19Z</time>
</trkpt>
<trkpt lat="53.3481305" lon="18.4458176">
<ele>157</ele>
<time>2015-08-22T10:51:21Z</time>
</trkpt>
<trkpt lat="53.3481305" lon="18.4458176">
<ele>157</ele>
<time>2015-08-22T10:51:23Z</time>
</trkpt>
<trkpt lat="53.3481305" lon="18.4458176">
<ele>157</ele>
<time>2015-08-22T10:51:25Z</time>
</trkpt>
<trkpt lat="53.3481305" lon="18.4458176">
<ele>157</ele>
<time>2015-08-22T10:51:27Z</time>
</trkpt>
<trkpt lat="53.3481305" lon="18.4458176">
<ele>157</ele>
<time>2015-08-22T10:51:29Z</time>
</trkpt>
<trkpt lat="53.3481305" lon="18.4458176">
<ele>157</ele>
<time>2015-08-22T10:51:31Z</time>
</trkpt>
<trkpt lat="53.3481305" lon="18.4458176">
<ele>157</ele>
<time>2015-08-22T10:51:33Z</time>
</trkpt>
<trkpt lat="53.3481305" lon="18.4458176">
<ele>157</ele>
<time>2015-08-22T10:51:35Z</time>
</trkpt>
<trkpt lat="53.3481305" lon="18.4458176">
<ele>157</ele>
<time>2015-08-22T10:51:37Z</time>
</trkpt>
<trkpt lat="53.3481305" lon="18.4458176">
<ele>157</ele>
<time>2015-08-22T10:51:39Z</time>
</trkpt>
<trkpt lat="53.3481305" lon="18.4458176">
<ele>157</ele>
<time>2015-08-22T10:51:41Z</time>
</trkpt>
<trkpt lat="53.3481305" lon="18.4458176">
<ele>157</ele>
<time>2015-08-22T10:51:43Z</time>
</trkpt>
<trkpt lat="53.3481305" lon="18.4458176">
<ele>157</ele>
<time>2015-08-22T10:51:45Z</time>
</trkpt>
<trkpt lat="53.3481305" lon="18.4458176">
<ele>157</ele>
<time>2015-08-22T10:51:47Z</time>
</trkpt>
<trkpt lat="53.3481305" lon="18.4458176">
<ele>157</ele>
<time>2015-08-22T10:51:49Z</time>
</trkpt>
<trkpt lat="53.3481305" lon="18.4458176">
<ele>157</ele>
<time>2015-08-22T10:51:51Z</time>
</trkpt>
<trkpt lat="53.3481305" lon="18.4458176">
<ele>157</ele>
<time>2015-08-22T10:51:53Z</time>
</trkpt>
<trkpt lat="53.3481305" lon="18.4458176">
<ele>157</ele>
<time>2015-08-22T10:51:55Z</time>
</trkpt>
<trkpt lat="53.3481305" lon="18.4458176">
<ele>157</ele>
<time>2015-08-22T10:51:57Z</time>
</trkpt>
<trkpt lat="53.3481305" lon="18.4458176">
<ele>157</ele>
<time>2015-08-22T10:51:59Z</time>
</trkpt>
<trkpt lat="53.3481305" lon="18.4458176">
<ele>157</ele>
<time>2015-08-22T10:52:01Z</time>
</trkpt>
<trkpt lat="53.3481305" lon="18.4458176">
<ele>157</ele>
<time>2015-08-22T10:52:03Z</time>
</trkpt>
<trkpt lat="53.3481305" lon="18.4458176">
<ele>157</ele>
<time>2015-08-22T10:52:05Z</time>
</trkpt>
<trkpt lat="53.3481305" lon="18.4458176">
<ele>157</ele>
<time>2015-08-22T10:52:07Z</time>
</trkpt>
<trkpt lat="53.3481305" lon="18.4458176">
<ele>157</ele>
<time>2015-08-22T10:52:09Z</time>
</trkpt>
<trkpt lat="53.3481305" lon="18.4458176">
<ele>157</ele>
<time>2015-08-22T10:52:11Z</time>
</trkpt>
<trkpt lat="53.3481305" lon="18.4458176">
<ele>157</ele>
<time>2015-08-22T10:52:13Z</time>
</trkpt>
<trkpt lat="53.3481305" lon="18.4458176">
<ele>157</ele>
<time>2015-08-22T10:52:15Z</time>
</trkpt>
<trkpt lat="53.3481305" lon="18.4458176">
<ele>157</ele>
<time>2015-08-22T10:52:17Z</time>
</trkpt>
<trkpt lat="53.3481305" lon="18.4458176">
<ele>157</ele>
<time>2015-08-22T10:52:19Z</time>
</trkpt>
<trkpt lat="53.3481305" lon="18.4458176">
<ele>157</ele>
<time>2015-08-22T10:52:21Z</time>
</trkpt>
<trkpt lat="53.3481305" lon="18.4458176">
<ele>157</ele>
<time>2015-08-22T10:52:23Z</time>
</trkpt>
<trkpt lat="53.3481305" lon="18.4458176">
<ele>157</ele>
<time>2015-08-22T10:52:25Z</time>
</trkpt>
<trkpt lat="53.3481305" lon="18.4458176">
<ele>157</ele>
<time>2015-08-22T10:52:27Z</time>
</trkpt>
<trkpt lat="53.3481305" lon="18.4458176">
<ele>157</ele>
<time>2015-08-22T10:52:29Z</time>
</trkpt>
<trkpt lat="53.3481305" lon="18.4458176">
<ele>157</ele>
<time>2015-08-22T10:52:31Z</time>
</trkpt>
<trkpt lat="53.3481305" lon="18.4458176">
<ele>157</ele>
<time>2015-08-22T10:52:33Z</time>
</trkpt>
<trkpt lat="53.3481305" lon="18.4458176">
<ele>157</ele>
<time>2015-08-22T10:52:35Z</time>
</trkpt>
<trkpt lat="53.3481305" lon="18.4458176">
<ele>157</ele>
<time>2015-08-22T10:52:37Z</time>
</trkpt>
<trkpt lat="53.3481305" lon="18.4458176">
<ele>157</ele>
<time>2015-08-22T10:52:39Z</time>
</trkpt>
<trkpt lat="53.3481305" lon="18.4458176">
<ele>157</ele>
<time>2015-08-22T10:52:41Z</time>
</trkpt>
<trkpt lat="53.3481305" lon="18.4458176">
<ele>157</ele>
<time>2015-08-22T10:52:43Z</time>
</trkpt>
<trkpt lat="" lon="">
<ele></ele>
<time>2015-08-22TZ</time>
</trkpt>
</trkseg>
</trk>
<wpt lat="" lon="">
	<name></name>
	<desc></desc>
	<cmt></cmt>
	<photoid></photoid>
	<type></type>
</wpt>
</gpx>
